createdAt,value
2019-01-29T00:00:51.941Z,-70
2019-01-29T00:01:51.803Z,-70
2019-01-29T00:02:51.923Z,-70
2019-01-29T00:03:51.805Z,-70
2019-01-29T00:04:51.951Z,-70
2019-01-29T00:05:51.829Z,-70
2019-01-29T00:06:51.912Z,-70
2019-01-29T00:07:51.807Z,-70
2019-01-29T00:08:51.921Z,-70
2019-01-29T00:09:51.808Z,-70
2019-01-29T00:10:51.950Z,-70
2019-01-29T00:11:51.807Z,-70
2019-01-29T00:12:51.934Z,-70
2019-01-29T00:13:51.812Z,-70
2019-01-29T00:14:51.928Z,-70
2019-01-29T00:15:51.836Z,-70
2019-01-29T00:16:51.922Z,-70
2019-01-29T00:17:51.813Z,-70
2019-01-29T00:18:51.927Z,-70
2019-01-29T00:19:52.922Z,-70
2019-01-29T00:20:51.954Z,-70
2019-01-29T00:21:51.818Z,-70
2019-01-29T00:22:51.935Z,-71
2019-01-29T00:23:51.818Z,-71
2019-01-29T00:24:51.939Z,-71
2019-01-29T00:25:51.820Z,-71
2019-01-29T00:26:51.959Z,-71
2019-01-29T00:27:51.822Z,-71
2019-01-29T00:28:51.935Z,-71
2019-01-29T00:29:51.824Z,-71
2019-01-29T00:30:51.939Z,-71
2019-01-29T00:31:51.854Z,-72
2019-01-29T00:32:51.943Z,-72
2019-01-29T00:33:51.828Z,-72
2019-01-29T00:34:51.940Z,-72
2019-01-29T00:35:51.830Z,-72
2019-01-29T00:36:51.968Z,-72
2019-01-29T00:37:51.833Z,-72
2019-01-29T00:38:51.946Z,-72
2019-01-29T00:39:51.833Z,-72
2019-01-29T00:40:51.947Z,-72
2019-01-29T00:41:51.859Z,-72
2019-01-29T00:42:51.948Z,-73
2019-01-29T00:43:51.837Z,-73
2019-01-29T00:44:51.946Z,-73
2019-01-29T00:45:51.837Z,-71
2019-01-29T00:46:51.979Z,-71
2019-01-29T00:47:51.836Z,-71
2019-01-29T00:48:51.957Z,-71
2019-01-29T00:49:51.843Z,-71
2019-01-29T00:50:51.949Z,-71
2019-01-29T00:51:51.867Z,-71
2019-01-29T00:52:51.961Z,-71
2019-01-29T00:53:51.843Z,-71
2019-01-29T00:54:51.952Z,-71
2019-01-29T00:55:51.844Z,-71
2019-01-29T00:56:51.981Z,-71
2019-01-29T00:57:51.850Z,-71
2019-01-29T00:58:51.959Z,-71
2019-01-29T00:59:52.441Z,-71
2019-01-29T01:00:51.960Z,-71
2019-01-29T01:01:51.871Z,-71
2019-01-29T01:02:51.960Z,-71
2019-01-29T01:03:51.849Z,-71
2019-01-29T01:04:51.966Z,-71
2019-01-29T01:05:51.859Z,-71
2019-01-29T01:06:51.990Z,-71
2019-01-29T01:07:51.853Z,-71
2019-01-29T01:08:51.972Z,-71
2019-01-29T01:09:56.962Z,-71
2019-01-29T01:10:51.969Z,-71
2019-01-29T01:11:51.884Z,-72
2019-01-29T01:12:51.970Z,-71
2019-01-29T01:13:51.858Z,-71
2019-01-29T01:14:51.971Z,-72
2019-01-29T01:15:51.861Z,-72
2019-01-29T01:16:51.971Z,-71
2019-01-29T01:17:51.887Z,-71
2019-01-29T01:18:51.981Z,-71
2019-01-29T01:19:51.867Z,-71
2019-01-29T01:20:51.991Z,-71
2019-01-29T01:21:52.004Z,-71
2019-01-29T01:22:52.011Z,-71
2019-01-29T01:23:51.870Z,-71
2019-01-29T01:24:51.982Z,-71
2019-01-29T01:25:51.872Z,-71
2019-01-29T01:26:51.982Z,-71
2019-01-29T01:27:51.899Z,-71
2019-01-29T01:28:51.986Z,-71
2019-01-29T01:29:51.876Z,-71
2019-01-29T01:30:51.993Z,-71
2019-01-29T01:31:51.874Z,-71
2019-01-29T01:32:52.023Z,-71
2019-01-29T01:33:51.877Z,-72
2019-01-29T01:34:51.994Z,-71
2019-01-29T01:35:51.878Z,-72
2019-01-29T01:36:51.998Z,-72
2019-01-29T01:37:51.902Z,-71
2019-01-29T01:38:51.998Z,-71
2019-01-29T01:39:51.881Z,-71
2019-01-29T01:40:51.997Z,-71
2019-01-29T01:41:51.884Z,-71
2019-01-29T01:42:52.028Z,-71
2019-01-29T01:43:51.882Z,-71
2019-01-29T01:44:52.000Z,-71
2019-01-29T01:45:51.885Z,-71
2019-01-29T01:46:52.001Z,-71
2019-01-29T01:47:51.919Z,-71
2019-01-29T01:48:52.002Z,-71
2019-01-29T01:49:51.889Z,-71
2019-01-29T01:50:52.004Z,-71
2019-01-29T01:51:51.892Z,-71
2019-01-29T01:52:59.672Z,-71
2019-01-29T01:53:51.893Z,-71
2019-01-29T01:54:52.036Z,-71
2019-01-29T01:55:51.896Z,-71
2019-01-29T01:56:52.006Z,-71
2019-01-29T01:57:51.925Z,-71
2019-01-29T01:58:52.011Z,-71
2019-01-29T01:59:51.898Z,-72
2019-01-29T02:00:52.015Z,-72
2019-01-29T02:01:51.899Z,-72
2019-01-29T02:02:52.018Z,-72
2019-01-29T02:03:51.925Z,-72
2019-01-29T02:04:52.018Z,-73
2019-01-29T02:05:51.902Z,-72
2019-01-29T02:06:52.018Z,-72
2019-01-29T02:07:51.901Z,-71
2019-01-29T02:08:52.047Z,-71
2019-01-29T02:09:51.903Z,-71
2019-01-29T02:10:52.020Z,-71
2019-01-29T02:11:51.908Z,-71
2019-01-29T02:12:52.026Z,-71
2019-01-29T02:13:51.933Z,-71
2019-01-29T02:14:52.019Z,-71
2019-01-29T02:15:51.912Z,-71
2019-01-29T02:16:52.025Z,-71
2019-01-29T02:17:51.916Z,-71
2019-01-29T02:18:52.054Z,-71
2019-01-29T02:19:51.915Z,-71
2019-01-29T02:20:52.029Z,-71
2019-01-29T02:21:51.914Z,-72
2019-01-29T02:22:52.037Z,-72
2019-01-29T02:23:51.941Z,-72
2019-01-29T02:24:52.030Z,-71
2019-01-29T02:25:51.997Z,-72
2019-01-29T02:26:52.049Z,-71
2019-01-29T02:27:51.919Z,-71
2019-01-29T02:28:52.059Z,-72
2019-01-29T02:29:51.921Z,-71
2019-01-29T02:30:52.058Z,-71
2019-01-29T02:31:51.923Z,-71
2019-01-29T02:32:52.054Z,-71
2019-01-29T02:33:51.947Z,-71
2019-01-29T02:34:52.051Z,-71
2019-01-29T02:35:51.923Z,-71
2019-01-29T02:36:52.049Z,-72
2019-01-29T02:37:51.928Z,-72
2019-01-29T02:38:52.067Z,-71
2019-01-29T02:39:51.930Z,-72
2019-01-29T02:40:52.044Z,-72
2019-01-29T02:41:51.931Z,-72
2019-01-29T02:42:52.048Z,-72
2019-01-29T02:43:51.956Z,-71
2019-01-29T02:44:52.047Z,-72
2019-01-29T02:45:51.933Z,-72
2019-01-29T02:46:52.045Z,-72
2019-01-29T02:47:51.934Z,-72
2019-01-29T02:48:52.057Z,-72
2019-01-29T02:49:51.961Z,-72
2019-01-29T02:50:52.054Z,-72
2019-01-29T02:51:51.943Z,-72
2019-01-29T02:52:52.055Z,-72
2019-01-29T02:53:51.941Z,-73
2019-01-29T02:54:52.090Z,-74
2019-01-29T02:55:51.941Z,-74
2019-01-29T02:56:52.058Z,-73
2019-01-29T02:57:51.943Z,-73
2019-01-29T02:58:52.061Z,-74
2019-01-29T02:59:51.969Z,-74
2019-01-29T03:00:52.066Z,-74
2019-01-29T03:01:51.944Z,-72
2019-01-29T03:02:52.065Z,-73
2019-01-29T03:03:51.948Z,-71
2019-01-29T03:04:53.795Z,-73
2019-01-29T03:05:51.952Z,-72
2019-01-29T03:06:52.072Z,-72
2019-01-29T03:07:51.952Z,-73
2019-01-29T03:08:52.068Z,-72
2019-01-29T03:09:51.975Z,-73
2019-01-29T03:10:52.070Z,-73
2019-01-29T03:11:51.957Z,-73
2019-01-29T03:12:52.076Z,-73
2019-01-29T03:13:51.963Z,-73
2019-01-29T03:14:52.100Z,-73
2019-01-29T03:15:51.962Z,-73
2019-01-29T03:16:52.074Z,-73
2019-01-29T03:17:51.958Z,-73
2019-01-29T03:18:52.082Z,-73
2019-01-29T03:19:51.990Z,-73
2019-01-29T03:20:52.075Z,-73
2019-01-29T03:21:51.963Z,-73
2019-01-29T03:22:52.078Z,-72
2019-01-29T03:23:51.964Z,-73
2019-01-29T03:24:52.183Z,-72
2019-01-29T03:25:51.962Z,-72
2019-01-29T03:26:52.081Z,-72
2019-01-29T03:27:51.977Z,-72
2019-01-29T03:28:52.084Z,-72
2019-01-29T03:29:51.991Z,-72
2019-01-29T03:30:52.088Z,-71
2019-01-29T03:31:51.970Z,-71
2019-01-29T03:32:52.104Z,-71
2019-01-29T03:33:51.973Z,-71
2019-01-29T03:34:52.111Z,-71
2019-01-29T03:35:51.974Z,-71
2019-01-29T03:36:52.090Z,-71
2019-01-29T03:37:51.975Z,-71
2019-01-29T03:38:52.093Z,-70
2019-01-29T03:39:52.002Z,-72
2019-01-29T03:40:52.107Z,-72
2019-01-29T03:41:51.979Z,-72
2019-01-29T03:42:52.097Z,-72
2019-01-29T03:43:51.978Z,-72
2019-01-29T03:44:52.121Z,-72
2019-01-29T03:45:51.984Z,-72
2019-01-29T03:46:52.101Z,-72
2019-01-29T03:47:51.982Z,-71
2019-01-29T03:48:52.098Z,-72
2019-01-29T03:49:52.014Z,-71
2019-01-29T03:50:52.101Z,-71
2019-01-29T03:51:51.984Z,-71
2019-01-29T03:52:52.102Z,-70
2019-01-29T03:53:51.986Z,-70
2019-01-29T03:54:52.141Z,-70
2019-01-29T03:55:51.989Z,-70
2019-01-29T03:56:52.108Z,-70
2019-01-29T03:57:51.992Z,-70
2019-01-29T03:58:52.109Z,-70
2019-01-29T03:59:51.992Z,-70
2019-01-29T04:00:52.137Z,-70
2019-01-29T04:01:51.994Z,-71
2019-01-29T04:02:52.120Z,-70
2019-01-29T04:03:51.994Z,-70
2019-01-29T04:04:52.108Z,-70
2019-01-29T04:05:52.029Z,-70
2019-01-29T04:06:52.112Z,-70
2019-01-29T04:07:51.998Z,-70
2019-01-29T04:08:52.119Z,-70
2019-01-29T04:09:52.003Z,-70
2019-01-29T04:10:52.141Z,-71
2019-01-29T04:11:52.000Z,-70
2019-01-29T04:12:52.119Z,-71
2019-01-29T04:13:52.005Z,-71
2019-01-29T04:14:52.119Z,-71
2019-01-29T04:15:52.029Z,-72
2019-01-29T04:16:52.128Z,-70
2019-01-29T04:17:52.006Z,-69
2019-01-29T04:18:52.128Z,-69
2019-01-29T04:19:52.006Z,-71
2019-01-29T04:20:52.162Z,-71
2019-01-29T04:21:52.011Z,-71
2019-01-29T04:22:52.127Z,-72
2019-01-29T04:23:52.012Z,-71
2019-01-29T04:24:52.134Z,-71
2019-01-29T04:25:52.036Z,-71
2019-01-29T04:26:52.129Z,-71
2019-01-29T04:27:52.015Z,-71
2019-01-29T04:28:52.133Z,-71
2019-01-29T04:29:52.016Z,-71
2019-01-29T04:30:52.166Z,-71
2019-01-29T04:31:52.020Z,-71
2019-01-29T04:32:52.142Z,-71
2019-01-29T04:33:52.047Z,-71
2019-01-29T04:34:52.146Z,-71
2019-01-29T04:35:52.046Z,-71
2019-01-29T04:36:52.136Z,-71
2019-01-29T04:37:52.022Z,-71
2019-01-29T04:38:52.140Z,-71
2019-01-29T04:39:52.028Z,-71
2019-01-29T04:40:52.163Z,-71
2019-01-29T04:41:52.027Z,-71
2019-01-29T04:42:52.141Z,-72
2019-01-29T04:43:52.026Z,-72
2019-01-29T04:44:52.141Z,-71
2019-01-29T04:45:52.052Z,-71
2019-01-29T04:46:52.147Z,-71
2019-01-29T04:47:52.027Z,-70
2019-01-29T04:48:52.147Z,-70
2019-01-29T04:49:53.547Z,-70
2019-01-29T04:50:52.176Z,-70
2019-01-29T04:51:52.032Z,-70
2019-01-29T04:52:52.157Z,-70
2019-01-29T04:53:57.428Z,-70
2019-01-29T04:54:52.157Z,-70
2019-01-29T04:55:52.067Z,-70
2019-01-29T04:56:52.161Z,-70
2019-01-29T04:57:52.039Z,-70
2019-01-29T04:58:52.158Z,-70
2019-01-29T04:59:52.041Z,-70
2019-01-29T05:00:52.180Z,-70
2019-01-29T05:01:52.039Z,-70
2019-01-29T05:02:52.151Z,-70
2019-01-29T05:03:52.048Z,-70
2019-01-29T05:04:52.163Z,-70
2019-01-29T05:05:52.083Z,-70
2019-01-29T05:06:52.156Z,-70
2019-01-29T05:07:52.044Z,-70
2019-01-29T05:08:52.161Z,-70
2019-01-29T05:09:52.048Z,-70
2019-01-29T05:10:52.166Z,-70
2019-01-29T05:11:52.073Z,-70
2019-01-29T05:12:52.165Z,-70
2019-01-29T05:13:52.051Z,-70
2019-01-29T05:14:52.166Z,-70
2019-01-29T05:15:52.051Z,-70
2019-01-29T05:16:52.191Z,-70
2019-01-29T05:17:52.051Z,-70
2019-01-29T05:18:52.172Z,-70
2019-01-29T05:19:52.054Z,-70
2019-01-29T05:20:52.170Z,-70
2019-01-29T05:21:52.081Z,-70
2019-01-29T05:22:52.178Z,-70
2019-01-29T05:23:52.059Z,-70
2019-01-29T05:24:52.175Z,-71
2019-01-29T05:25:52.062Z,-71
2019-01-29T05:26:52.203Z,-71
2019-01-29T05:27:52.062Z,-71
2019-01-29T05:28:52.179Z,-71
2019-01-29T05:29:52.064Z,-71
2019-01-29T05:30:52.182Z,-69
2019-01-29T05:31:52.088Z,-69
2019-01-29T05:32:52.188Z,-70
2019-01-29T05:33:52.066Z,-69
2019-01-29T05:34:52.180Z,-69
2019-01-29T05:35:52.068Z,-69
2019-01-29T05:36:52.206Z,-69
2019-01-29T05:37:52.069Z,-69
2019-01-29T05:38:52.182Z,-69
2019-01-29T05:39:52.072Z,-69
2019-01-29T05:40:52.182Z,-69
2019-01-29T05:41:52.097Z,-69
2019-01-29T05:42:52.187Z,-69
2019-01-29T05:43:52.076Z,-69
2019-01-29T05:44:52.189Z,-69
2019-01-29T05:45:52.076Z,-69
2019-01-29T05:46:52.215Z,-69
2019-01-29T05:47:52.074Z,-69
2019-01-29T05:48:52.195Z,-69
2019-01-29T05:49:52.080Z,-69
2019-01-29T05:50:52.227Z,-69
2019-01-29T05:51:52.102Z,-69
2019-01-29T05:52:52.202Z,-69
2019-01-29T05:53:52.084Z,-69
2019-01-29T05:54:52.220Z,-69
2019-01-29T05:55:52.083Z,-69
2019-01-29T05:56:52.226Z,-69
2019-01-29T05:57:52.086Z,-69
2019-01-29T05:58:52.221Z,-69
2019-01-29T05:59:52.087Z,-69
2019-01-29T06:00:52.205Z,-69
2019-01-29T06:01:52.131Z,-69
2019-01-29T06:02:52.198Z,-69
2019-01-29T06:03:52.096Z,-69
2019-01-29T06:04:52.204Z,-69
2019-01-29T06:05:52.091Z,-69
2019-01-29T06:06:52.209Z,-69
2019-01-29T06:07:52.117Z,-69
2019-01-29T06:08:52.202Z,-69
2019-01-29T06:09:52.095Z,-69
2019-01-29T06:10:52.210Z,-69
2019-01-29T06:11:52.097Z,-69
2019-01-29T06:12:52.232Z,-69
2019-01-29T06:13:52.099Z,-69
2019-01-29T06:14:52.216Z,-69
2019-01-29T06:15:52.101Z,-69
2019-01-29T06:16:52.214Z,-69
2019-01-29T06:17:52.125Z,-69
2019-01-29T06:18:52.215Z,-69
2019-01-29T06:19:52.101Z,-69
2019-01-29T06:20:52.219Z,-69
2019-01-29T06:21:52.104Z,-69
2019-01-29T06:22:52.254Z,-69
2019-01-29T06:23:52.106Z,-69
2019-01-29T06:24:52.225Z,-69
2019-01-29T06:25:52.123Z,-69
2019-01-29T06:26:52.251Z,-69
2019-01-29T06:27:52.134Z,-69
2019-01-29T06:28:52.224Z,-69
2019-01-29T06:29:52.112Z,-69
2019-01-29T06:30:52.226Z,-69
2019-01-29T06:31:52.113Z,-69
2019-01-29T06:32:52.253Z,-69
2019-01-29T06:33:52.117Z,-69
2019-01-29T06:34:52.229Z,-69
2019-01-29T06:35:52.115Z,-69
2019-01-29T06:36:52.246Z,-69
2019-01-29T06:37:52.178Z,-69
2019-01-29T06:38:52.229Z,-69
2019-01-29T06:39:52.117Z,-69
2019-01-29T06:40:52.233Z,-69
2019-01-29T06:41:52.121Z,-69
2019-01-29T06:42:52.263Z,-69
2019-01-29T06:43:52.123Z,-69
2019-01-29T06:44:52.236Z,-69
2019-01-29T06:45:52.121Z,-70
2019-01-29T06:46:52.233Z,-69
2019-01-29T06:47:52.172Z,-69
2019-01-29T06:48:54.164Z,-69
2019-01-29T06:49:52.128Z,-69
2019-01-29T06:50:52.243Z,-69
2019-01-29T06:51:52.129Z,-69
2019-01-29T06:52:52.270Z,-69
2019-01-29T06:53:52.129Z,-69
2019-01-29T06:54:52.246Z,-69
2019-01-29T06:55:52.130Z,-69
2019-01-29T06:56:52.244Z,-69
2019-01-29T06:57:55.313Z,-69
2019-01-29T06:58:52.281Z,-69
2019-01-29T06:59:52.159Z,-69
2019-01-29T07:00:52.250Z,-69
2019-01-29T07:01:52.181Z,-69
2019-01-29T07:02:52.257Z,-69
2019-01-29T07:03:52.170Z,-69
2019-01-29T07:04:52.253Z,-69
2019-01-29T07:05:52.137Z,-69
2019-01-29T07:06:52.255Z,-69
2019-01-29T07:07:52.141Z,-69
2019-01-29T07:08:52.280Z,-69
2019-01-29T07:09:52.141Z,-69
2019-01-29T07:10:52.261Z,-69
2019-01-29T07:11:52.143Z,-69
2019-01-29T07:12:52.260Z,-69
2019-01-29T07:13:52.169Z,-69
2019-01-29T07:14:52.260Z,-69
2019-01-29T07:15:52.149Z,-69
2019-01-29T07:16:52.264Z,-69
2019-01-29T07:17:52.147Z,-69
2019-01-29T07:18:52.291Z,-69
2019-01-29T07:19:52.149Z,-69
2019-01-29T07:20:52.271Z,-69
2019-01-29T07:21:52.151Z,-69
2019-01-29T07:22:52.268Z,-69
2019-01-29T07:23:52.175Z,-69
2019-01-29T07:24:52.266Z,-69
2019-01-29T07:25:52.155Z,-69
2019-01-29T07:26:52.265Z,-69
2019-01-29T07:27:52.155Z,-70
2019-01-29T07:28:52.295Z,-69
2019-01-29T07:29:52.156Z,-69
2019-01-29T07:30:52.275Z,-69
2019-01-29T07:31:52.159Z,-69
2019-01-29T07:32:52.275Z,-69
2019-01-29T07:33:52.184Z,-68
2019-01-29T07:34:52.272Z,-69
2019-01-29T07:35:52.163Z,-69
2019-01-29T07:36:52.279Z,-68
2019-01-29T07:37:52.168Z,-69
2019-01-29T07:38:52.307Z,-68
2019-01-29T07:39:52.163Z,-69
2019-01-29T07:40:52.281Z,-69
2019-01-29T07:41:52.166Z,-69
2019-01-29T07:42:52.301Z,-69
2019-01-29T07:43:52.194Z,-69
2019-01-29T07:44:52.307Z,-69
2019-01-29T07:45:52.171Z,-69
2019-01-29T07:46:52.288Z,-69
2019-01-29T07:47:52.405Z,-69
2019-01-29T07:48:52.321Z,-69
2019-01-29T07:49:52.179Z,-69
2019-01-29T07:50:52.307Z,-69
2019-01-29T07:51:52.177Z,-69
2019-01-29T07:52:52.295Z,-69
2019-01-29T07:53:52.202Z,-68
2019-01-29T07:54:52.298Z,-69
2019-01-29T07:55:52.178Z,-69
2019-01-29T07:56:52.288Z,-69
2019-01-29T07:57:52.181Z,-69
2019-01-29T07:58:52.317Z,-68
2019-01-29T07:59:52.377Z,-69
2019-01-29T08:00:52.621Z,-68
2019-01-29T08:01:52.183Z,-69
2019-01-29T08:02:52.301Z,-69
2019-01-29T08:03:52.239Z,-68
2019-01-29T08:04:52.301Z,-68
2019-01-29T08:05:52.187Z,-68
2019-01-29T08:06:52.300Z,-68
2019-01-29T08:07:52.190Z,-68
2019-01-29T08:08:52.301Z,-68
2019-01-29T08:09:52.214Z,-69
2019-01-29T08:10:52.497Z,-68
2019-01-29T08:11:52.203Z,-68
2019-01-29T08:12:52.313Z,-69
2019-01-29T08:13:52.193Z,-68
2019-01-29T08:14:52.370Z,-68
2019-01-29T08:15:52.193Z,-68
2019-01-29T08:16:52.306Z,-69
2019-01-29T08:17:52.194Z,-68
2019-01-29T08:18:52.310Z,-68
2019-01-29T08:19:52.231Z,-68
2019-01-29T08:20:52.314Z,-68
2019-01-29T08:21:52.200Z,-68
2019-01-29T08:22:52.314Z,-69
2019-01-29T08:23:52.200Z,-68
2019-01-29T08:25:02.327Z,-69
2019-01-29T08:25:52.202Z,-68
2019-01-29T08:26:52.318Z,-68
2019-01-29T08:27:52.203Z,-68
2019-01-29T08:28:52.356Z,-69
2019-01-29T08:29:52.229Z,-69
2019-01-29T08:30:52.326Z,-69
2019-01-29T08:31:52.207Z,-69
2019-01-29T08:32:52.326Z,-68
2019-01-29T08:33:52.209Z,-68
2019-01-29T08:34:52.349Z,-69
2019-01-29T08:35:52.211Z,-68
2019-01-29T08:36:52.328Z,-68
2019-01-29T08:37:52.209Z,-68
2019-01-29T08:38:52.329Z,-68
2019-01-29T08:39:52.235Z,-69
2019-01-29T08:40:52.332Z,-68
2019-01-29T08:41:52.215Z,-68
2019-01-29T08:42:52.327Z,-68
2019-01-29T08:43:52.214Z,-69
2019-01-29T08:44:52.362Z,-68
2019-01-29T08:45:54.152Z,-68
2019-01-29T08:46:52.329Z,-68
2019-01-29T08:47:52.220Z,-68
2019-01-29T08:48:52.336Z,-68
2019-01-29T08:49:52.248Z,-68
2019-01-29T08:50:52.336Z,-68
2019-01-29T08:51:52.223Z,-68
2019-01-29T08:52:52.335Z,-68
2019-01-29T08:53:52.225Z,-68
2019-01-29T08:54:52.378Z,-68
2019-01-29T08:55:52.226Z,-68
2019-01-29T08:56:52.339Z,-68
2019-01-29T08:57:52.229Z,-68
2019-01-29T08:58:52.342Z,-68
2019-01-29T08:59:52.230Z,-69
2019-01-29T09:00:52.373Z,-68
2019-01-29T09:01:52.232Z,-68
2019-01-29T09:02:52.352Z,-68
2019-01-29T09:03:52.232Z,-68
2019-01-29T09:04:52.346Z,-68
2019-01-29T09:05:52.258Z,-68
2019-01-29T09:06:52.354Z,-68
2019-01-29T09:07:52.234Z,-68
2019-01-29T09:08:52.355Z,-68
2019-01-29T09:09:52.235Z,-68
2019-01-29T09:10:52.387Z,-68
2019-01-29T09:11:52.237Z,-68
2019-01-29T09:12:52.356Z,-68
2019-01-29T09:13:52.239Z,-68
2019-01-29T09:14:52.361Z,-68
2019-01-29T09:15:52.267Z,-68
2019-01-29T09:16:52.362Z,-70
2019-01-29T09:17:52.241Z,-68
2019-01-29T09:18:52.362Z,-68
2019-01-29T09:19:52.246Z,-68
2019-01-29T09:20:52.381Z,-68
2019-01-29T09:21:52.246Z,-68
2019-01-29T09:22:52.361Z,-68
2019-01-29T09:23:52.249Z,-68
2019-01-29T09:24:52.363Z,-68
2019-01-29T09:25:53.099Z,-68
2019-01-29T09:26:52.365Z,-68
2019-01-29T09:27:52.251Z,-68
2019-01-29T09:28:52.366Z,-68
2019-01-29T09:29:52.253Z,-68
2019-01-29T09:30:52.391Z,-68
2019-01-29T09:31:52.254Z,-68
2019-01-29T09:32:52.370Z,-68
2019-01-29T09:33:52.256Z,-68
2019-01-29T09:34:52.373Z,-68
2019-01-29T09:35:52.279Z,-68
2019-01-29T09:36:52.372Z,-68
2019-01-29T09:37:52.259Z,-68
2019-01-29T09:38:52.374Z,-68
2019-01-29T09:39:52.259Z,-68
2019-01-29T09:40:52.400Z,-68
2019-01-29T09:41:52.265Z,-68
2019-01-29T09:42:52.378Z,-68
2019-01-29T09:43:52.264Z,-68
2019-01-29T09:44:52.381Z,-67
2019-01-29T09:45:52.287Z,-68
2019-01-29T09:46:52.384Z,-68
2019-01-29T09:47:52.265Z,-68
2019-01-29T09:48:52.380Z,-68
2019-01-29T09:49:52.267Z,-68
2019-01-29T09:50:52.409Z,-68
2019-01-29T09:51:52.270Z,-68
2019-01-29T09:52:52.404Z,-68
2019-01-29T09:53:52.272Z,-68
2019-01-29T09:54:52.389Z,-68
2019-01-29T09:55:52.296Z,-68
2019-01-29T09:56:52.389Z,-68
2019-01-29T09:57:52.277Z,-68
2019-01-29T09:58:52.393Z,-67
2019-01-29T09:59:52.276Z,-68
2019-01-29T10:00:52.417Z,-68
2019-01-29T10:01:52.276Z,-68
2019-01-29T10:02:52.394Z,-68
2019-01-29T10:03:52.280Z,-68
2019-01-29T10:04:52.391Z,-68
2019-01-29T10:05:52.281Z,-68
2019-01-29T10:06:52.414Z,-68
2019-01-29T10:07:52.282Z,-68
2019-01-29T10:08:52.399Z,-68
2019-01-29T10:09:52.283Z,-68
2019-01-29T10:10:52.400Z,-68
2019-01-29T10:11:52.309Z,-68
2019-01-29T10:12:52.407Z,-68
2019-01-29T10:13:52.288Z,-68
2019-01-29T10:14:52.402Z,-68
2019-01-29T10:15:52.285Z,-68
2019-01-29T10:16:52.430Z,-68
2019-01-29T10:17:52.317Z,-68
2019-01-29T10:18:52.406Z,-68
2019-01-29T10:19:52.291Z,-68
2019-01-29T10:20:52.418Z,-68
2019-01-29T10:21:52.317Z,-68
2019-01-29T10:22:52.410Z,-68
2019-01-29T10:23:52.292Z,-68
2019-01-29T10:24:52.408Z,-68
2019-01-29T10:25:52.297Z,-68
2019-01-29T10:26:52.435Z,-68
2019-01-29T10:27:52.297Z,-68
2019-01-29T10:28:52.411Z,-68
2019-01-29T10:29:52.298Z,-68
2019-01-29T10:30:52.415Z,-68
2019-01-29T10:31:52.325Z,-68
2019-01-29T10:32:52.419Z,-68
2019-01-29T10:33:52.301Z,-68
2019-01-29T10:34:52.420Z,-68
2019-01-29T10:35:52.305Z,-68
2019-01-29T10:36:52.442Z,-68
2019-01-29T10:37:52.305Z,-68
2019-01-29T10:38:52.422Z,-68
2019-01-29T10:39:52.307Z,-68
2019-01-29T10:40:52.423Z,-68
2019-01-29T10:41:52.331Z,-68
2019-01-29T10:42:52.426Z,-68
2019-01-29T10:43:52.311Z,-68
2019-01-29T10:44:52.424Z,-68
2019-01-29T10:45:52.311Z,-68
2019-01-29T10:46:52.457Z,-68
2019-01-29T10:47:52.314Z,-68
2019-01-29T10:48:52.434Z,-68
2019-01-29T10:49:52.317Z,-68
2019-01-29T10:50:52.447Z,-68
2019-01-29T10:51:52.343Z,-68
2019-01-29T10:52:52.434Z,-68
2019-01-29T10:53:52.316Z,-68
2019-01-29T10:54:52.435Z,-68
2019-01-29T10:55:52.317Z,-68
2019-01-29T10:56:52.456Z,-68
2019-01-29T10:57:52.322Z,-68
2019-01-29T10:58:52.448Z,-68
2019-01-29T10:59:52.324Z,-68
2019-01-29T11:00:52.435Z,-67
2019-01-29T11:01:52.349Z,-68
2019-01-29T11:02:52.439Z,-68
2019-01-29T11:03:52.330Z,-68
2019-01-29T11:04:52.440Z,-68
2019-01-29T11:05:52.329Z,-68
2019-01-29T11:06:52.466Z,-68
2019-01-29T11:07:52.331Z,-68
2019-01-29T11:08:52.440Z,-68
2019-01-29T11:09:52.329Z,-68
2019-01-29T11:10:52.445Z,-68
2019-01-29T11:11:52.361Z,-68
2019-01-29T11:12:52.456Z,-68
2019-01-29T11:13:52.394Z,-68
2019-01-29T11:14:52.448Z,-68
2019-01-29T11:15:52.333Z,-68
2019-01-29T11:16:52.474Z,-68
2019-01-29T11:17:52.336Z,-68
2019-01-29T11:18:52.450Z,-68
2019-01-29T11:19:52.340Z,-68
2019-01-29T11:20:52.468Z,-67
2019-01-29T11:21:52.365Z,-68
2019-01-29T11:22:52.460Z,-68
2019-01-29T11:23:52.342Z,-67
2019-01-29T11:24:52.456Z,-68
2019-01-29T11:25:55.854Z,-67
2019-01-29T11:26:52.484Z,-68
2019-01-29T11:27:52.344Z,-68
2019-01-29T11:28:52.462Z,-68
2019-01-29T11:29:52.347Z,-68
2019-01-29T11:30:52.478Z,-68
2019-01-29T11:31:52.372Z,-68
2019-01-29T11:32:52.468Z,-68
2019-01-29T11:33:52.349Z,-68
2019-01-29T11:34:52.467Z,-68
2019-01-29T11:35:52.350Z,-68
2019-01-29T11:36:52.501Z,-68
2019-01-29T11:37:52.351Z,-68
2019-01-29T11:38:52.472Z,-68
2019-01-29T11:39:52.356Z,-68
2019-01-29T11:40:52.467Z,-68
2019-01-29T11:41:52.356Z,-68
2019-01-29T11:42:52.497Z,-68
2019-01-29T11:43:52.359Z,-68
2019-01-29T11:44:52.475Z,-68
2019-01-29T11:45:52.357Z,-68
2019-01-29T11:46:52.477Z,-68
2019-01-29T11:47:52.383Z,-68
2019-01-29T11:48:52.475Z,-68
2019-01-29T11:49:52.360Z,-68
2019-01-29T11:50:52.481Z,-68
2019-01-29T11:51:52.366Z,-68
2019-01-29T11:52:52.504Z,-68
2019-01-29T11:53:52.366Z,-68
2019-01-29T11:54:52.607Z,-68
2019-01-29T11:55:52.367Z,-68
2019-01-29T11:56:52.487Z,-68
2019-01-29T11:57:52.394Z,-68
2019-01-29T11:58:52.483Z,-68
2019-01-29T11:59:52.370Z,-68
2019-01-29T12:00:52.488Z,-68
2019-01-29T12:01:52.373Z,-68
2019-01-29T12:02:52.508Z,-68
2019-01-29T12:03:52.372Z,-68
2019-01-29T12:04:52.502Z,-68
2019-01-29T12:05:52.376Z,-68
2019-01-29T12:06:52.488Z,-68
2019-01-29T12:07:52.422Z,-68
2019-01-29T12:08:52.493Z,-68
2019-01-29T12:09:52.380Z,-68
2019-01-29T12:10:52.497Z,-68
2019-01-29T12:11:52.378Z,-68
2019-01-29T12:12:52.497Z,-68
2019-01-29T12:13:52.406Z,-68
2019-01-29T12:14:52.499Z,-68
2019-01-29T12:15:52.383Z,-67
2019-01-29T12:16:52.500Z,-68
2019-01-29T12:17:52.386Z,-68
2019-01-29T12:18:52.548Z,-68
2019-01-29T12:19:52.385Z,-68
2019-01-29T12:20:52.501Z,-68
2019-01-29T12:21:52.387Z,-68
2019-01-29T12:22:52.505Z,-68
2019-01-29T12:23:52.413Z,-68
2019-01-29T12:24:52.508Z,-68
2019-01-29T12:25:52.391Z,-68
2019-01-29T12:26:52.506Z,-68
2019-01-29T12:27:52.393Z,-68
2019-01-29T12:28:52.532Z,-68
2019-01-29T12:29:52.393Z,-68
2019-01-29T12:30:52.511Z,-68
2019-01-29T12:31:52.425Z,-68
2019-01-29T12:32:52.516Z,-68
2019-01-29T12:33:52.423Z,-68
2019-01-29T12:34:52.514Z,-68
2019-01-29T12:35:52.398Z,-68
2019-01-29T12:36:52.516Z,-68
2019-01-29T12:37:52.413Z,-68
2019-01-29T12:38:52.537Z,-68
2019-01-29T12:39:52.400Z,-68
2019-01-29T12:40:52.518Z,-68
2019-01-29T12:41:52.404Z,-68
2019-01-29T12:42:52.520Z,-68
2019-01-29T12:43:52.431Z,-68
2019-01-29T12:44:52.522Z,-68
2019-01-29T12:45:52.407Z,-68
2019-01-29T12:46:52.521Z,-68
2019-01-29T12:47:52.411Z,-68
2019-01-29T12:48:52.548Z,-68
2019-01-29T12:49:52.408Z,-68
2019-01-29T12:50:52.530Z,-68
2019-01-29T12:51:52.410Z,-68
2019-01-29T12:52:52.527Z,-68
2019-01-29T12:53:52.452Z,-68
2019-01-29T12:54:52.547Z,-69
2019-01-29T12:55:52.418Z,-69
2019-01-29T12:56:52.530Z,-68
2019-01-29T12:57:52.416Z,-68
2019-01-29T12:58:52.553Z,-68
2019-01-29T12:59:52.419Z,-68
2019-01-29T13:00:52.532Z,-68
2019-01-29T13:01:52.422Z,-68
2019-01-29T13:02:52.538Z,-68
2019-01-29T13:03:52.443Z,-68
2019-01-29T13:04:52.537Z,-68
2019-01-29T13:05:52.426Z,-68
2019-01-29T13:06:52.543Z,-68
2019-01-29T13:07:52.424Z,-68
2019-01-29T13:08:52.575Z,-69
2019-01-29T13:09:52.432Z,-68
2019-01-29T13:10:52.551Z,-68
2019-01-29T13:11:52.434Z,-68
2019-01-29T13:12:52.550Z,-68
2019-01-29T13:13:52.452Z,-68
2019-01-29T13:14:52.545Z,-68
2019-01-29T13:15:52.434Z,-68
2019-01-29T13:16:52.546Z,-68
2019-01-29T13:17:52.433Z,-68
2019-01-29T13:18:52.573Z,-68
2019-01-29T13:19:52.435Z,-68
2019-01-29T13:20:52.549Z,-68
2019-01-29T13:21:52.439Z,-68
2019-01-29T13:22:52.549Z,-68
2019-01-29T13:23:52.462Z,-68
2019-01-29T13:24:52.565Z,-68
2019-01-29T13:25:52.440Z,-68
2019-01-29T13:26:52.555Z,-68
2019-01-29T13:27:52.438Z,-68
2019-01-29T13:28:52.578Z,-68
2019-01-29T13:29:52.442Z,-68
2019-01-29T13:30:52.557Z,-68
2019-01-29T13:31:52.445Z,-68
2019-01-29T13:32:52.567Z,-68
2019-01-29T13:33:52.446Z,-68
2019-01-29T13:34:52.580Z,-68
2019-01-29T13:35:52.449Z,-68
2019-01-29T13:36:52.564Z,-68
2019-01-29T13:37:52.448Z,-68
2019-01-29T13:38:52.565Z,-68
2019-01-29T13:39:52.475Z,-68
2019-01-29T13:40:52.572Z,-68
2019-01-29T13:41:52.450Z,-68
2019-01-29T13:42:52.571Z,-68
2019-01-29T13:43:52.454Z,-68
2019-01-29T13:44:52.598Z,-68
2019-01-29T13:45:52.458Z,-68
2019-01-29T13:46:52.573Z,-68